Time;durP1;ratioP1;P1;durP2;ratioP2;P2;SDS_P1;SDS_P2;PMS_P1;PMS_P2;Temp;Humidity;BMP_temperature;BMP_pressure;BME280_temperature;BME280_humidity;BME280_pressure;Samples;Min_cycle;Max_cycle;Signal;HPM_P1;HPM_P2
2022/02/26 00:01:14;;;;;;;2.75;1.30;;;;;;;-145.06;0.00;60892.56;4767632;28;20476;-88
2022/02/26 00:03:53;;;;;;;3.27;1.37;;;;;;;-145.06;0.00;60892.56;4786458;28;20039;-88
2022/02/26 00:06:32;;;;;;;2.00;1.20;;;;;;;187.52;0.00;60892.56;4781118;29;20046;-88
2022/02/26 00:09:11;;;;;;;3.67;1.30;;;;;;;-145.06;0.00;60892.56;4766729;29;20039;-89
2022/02/26 00:11:49;;;;;;;2.72;1.23;;;;;;;-145.06;0.00;60892.56;4782554;28;20043;-87
2022/02/26 00:14:29;;;;;;;5.13;1.40;;;;;;;-145.06;0.00;60892.56;4784347;28;20098;-89
2022/02/26 00:17:08;;;;;;;2.38;1.00;;;;;;;-145.06;0.00;60892.56;4771808;28;20058;-88
2022/02/26 00:19:47;;;;;;;3.65;1.58;;;;;;;-145.06;0.00;60892.56;4783439;28;20027;-89
2022/02/26 00:22:26;;;;;;;3.35;0.93;;;;;;;-145.06;0.00;60892.56;4783284;28;20067;-88
2022/02/26 00:25:05;;;;;;;5.10;1.13;;;;;;;-145.06;0.00;60892.56;4781016;28;20027;-89
2022/02/26 00:27:45;;;;;;;2.33;1.02;;;;;;;-145.06;0.00;60892.56;4782370;28;20035;-89
2022/02/26 00:30:24;;;;;;;2.00;1.00;;;;;;;-145.06;0.00;60892.56;4767367;28;20035;-88
2022/02/26 00:33:03;;;;;;;2.63;1.17;;;;;;;-145.06;0.00;60892.56;4769758;29;20031;-89
2022/02/26 00:35:42;;;;;;;4.00;1.27;;;;;;;-145.06;0.00;60892.56;4779438;29;20481;-89
2022/02/26 00:38:21;;;;;;;2.07;1.00;;;;;;;-145.06;0.00;60892.56;4767445;28;20039;-88
2022/02/26 00:41:00;;;;;;;2.00;1.20;;;;;;;-145.06;0.00;60892.56;4791210;28;20267;-90
2022/02/26 00:43:39;;;;;;;2.22;1.15;;;;;;;-145.06;0.00;60892.56;4780053;28;20046;-89
2022/02/26 00:46:18;;;;;;;2.80;1.20;;;;;;;-145.06;0.00;60892.56;4775660;28;20026;-89
2022/02/26 00:52:08;;;;;;;1.60;0.90;;;;;;;-145.06;0.00;60892.56;4775468;28;20449;-89
2022/02/26 00:54:49;;;;;;;2.22;1.13;;;;;;;-145.06;0.00;60892.56;4766107;29;20035;-91
2022/02/26 00:57:28;;;;;;;4.80;1.10;;;;;;;-145.06;0.00;60892.56;4781643;28;20043;-90
2022/02/26 01:00:09;;;;;;;5.38;1.30;;;;;;;-145.06;0.00;60892.56;4774061;28;20113;-89
2022/02/26 01:02:48;;;;;;;2.40;1.10;;;;;;;-145.06;0.00;60892.56;4792040;28;20485;-89
2022/02/26 01:05:27;;;;;;;5.38;1.70;;;;;;;-145.06;0.00;60892.56;4769310;29;20054;-88
2022/02/26 01:08:06;;;;;;;2.08;1.17;;;;;;;-145.06;0.00;60892.56;4769821;28;20027;-90
2022/02/26 01:10:45;;;;;;;2.90;1.37;;;;;;;-145.06;0.00;60892.56;4784172;29;20039;-89
2022/02/26 01:13:24;;;;;;;2.73;1.20;;;;;;;-145.06;0.00;60892.56;4775284;28;20274;-89
2022/02/26 01:16:03;;;;;;;4.20;1.63;;;;;;;-145.06;0.00;60892.56;4770782;29;20035;-90
2022/02/26 01:18:42;;;;;;;1.85;1.17;;;;;;;-145.06;0.00;60892.56;4770154;29;20035;-89
2022/02/26 01:21:21;;;;;;;2.15;1.10;;;;;;;-145.06;0.00;60892.56;4774776;28;20118;-90
2022/02/26 01:24:01;;;;;;;3.53;1.10;;;;;;;-145.06;0.00;60892.56;4776501;29;20035;-89
2022/02/26 01:26:40;;;;;;;3.08;1.38;;;;;;;-145.06;0.00;60892.56;4782509;28;20449;-88
2022/02/26 01:29:19;;;;;;;2.70;1.35;;;;;;;-145.06;0.00;60892.56;4770806;29;20532;-89
2022/02/26 01:31:58;;;;;;;1.10;0.80;;;;;;;-145.06;0.00;60892.56;4778587;28;20038;-90
2022/02/26 01:34:37;;;;;;;2.73;1.20;;;;;;;-145.06;0.00;60892.56;4781148;28;20263;-90
2022/02/26 01:37:16;;;;;;;2.70;1.08;;;;;;;-145.06;0.00;60892.56;4786556;28;20398;-90
2022/02/26 01:39:54;;;;;;;2.43;1.40;;;;;;;-145.06;0.00;60892.56;4768803;29;20039;-88
2022/02/26 01:42:33;;;;;;;2.15;1.00;;;;;;;-145.06;0.00;60892.56;4766305;28;20023;-90
2022/02/26 01:45:15;;;;;;;1.88;1.00;;;;;;;-145.06;0.00;60892.56;4769014;29;20035;-90
2022/02/26 01:47:54;;;;;;;4.25;1.10;;;;;;;-145.06;0.00;60892.56;4769788;28;20055;-89
2022/02/26 01:50:33;;;;;;;2.28;1.20;;;;;;;-145.06;0.00;60892.56;4789692;28;20039;-89
2022/02/26 01:53:13;;;;;;;1.80;0.98;;;;;;;-145.06;0.00;60892.56;4765102;29;20532;-89
2022/02/26 01:55:52;;;;;;;2.35;1.20;;;;;;;-145.06;0.00;60892.56;4772567;29;20034;-89
2022/02/26 01:58:31;;;;;;;2.55;0.93;;;;;;;-145.06;0.00;60892.56;4762084;29;20070;-89
2022/02/26 02:01:11;;;;;;;2.20;1.08;;;;;;;-145.06;0.00;60892.56;4774282;29;20094;-89
2022/02/26 02:03:50;;;;;;;4.07;1.10;;;;;;;3.60;0.00;60892.56;4770902;28;20536;-89
2022/02/26 02:06:29;;;;;;;2.85;1.23;;;;;;;-145.06;0.00;60892.56;4773897;28;20051;-90
2022/02/26 02:09:09;;;;;;;1.38;0.90;;;;;;;-145.06;0.00;60892.56;4773613;29;20067;-89
2022/02/26 02:11:49;;;;;;;1.60;0.95;;;;;;;-145.06;0.00;60892.56;4767091;29;20031;-89
2022/02/26 02:14:28;;;;;;;2.28;1.00;;;;;;;-145.06;0.00;60892.56;4778056;29;20035;-89
2022/02/26 02:17:07;;;;;;;2.80;1.35;;;;;;;-145.06;0.00;60892.56;4771695;28;20062;-89
2022/02/26 02:19:46;;;;;;;1.98;0.90;;;;;;;-145.06;0.00;60892.56;4774461;29;20055;-89
2022/02/26 02:22:25;;;;;;;2.65;1.00;;;;;;;-145.06;0.00;60892.56;4781196;28;20047;-90
2022/02/26 02:25:05;;;;;;;1.92;1.05;;;;;;;-145.06;0.00;60892.56;4795568;28;20062;-88
2022/02/26 02:27:44;;;;;;;2.65;1.00;;;;;;;-145.06;0.00;60892.56;4779791;28;20042;-90
2022/02/26 02:30:25;;;;;;;3.53;1.13;;;;;;;-145.06;0.00;60892.56;4787613;28;20035;-90
2022/02/26 02:33:06;;;;;;;2.70;1.33;;;;;;;-145.06;0.00;60892.56;4779754;28;20046;-89
2022/02/26 02:35:45;;;;;;;2.92;1.08;;;;;;;-145.06;0.00;60892.56;4797448;28;20114;-91
2022/02/26 02:38:24;;;;;;;2.17;1.00;;;;;;;-145.06;0.00;60892.56;4768269;29;20130;-89
2022/02/26 02:41:03;;;;;;;2.15;1.10;;;;;;;-145.06;0.00;60892.56;4764179;29;20032;-90
2022/02/26 02:43:42;;;;;;;5.22;1.63;;;;;;;-145.06;0.00;60892.56;4763450;29;20450;-89
2022/02/26 02:46:21;;;;;;;1.90;1.00;;;;;;;-145.06;0.00;60892.56;4779167;29;20051;-89
2022/02/26 02:49:00;;;;;;;1.37;1.10;;;;;;;-145.06;0.00;60892.56;4774467;28;20063;-90
2022/02/26 02:51:39;;;;;;;2.38;0.95;;;;;;;-145.06;0.00;60892.56;4769015;29;20283;-90
2022/02/26 02:54:18;;;;;;;2.00;1.00;;;;;;;-145.06;0.00;60892.56;4786795;28;20055;-90
2022/02/26 02:56:57;;;;;;;1.70;1.02;;;;;;;-145.06;0.00;60892.56;4789966;28;20023;-90
2022/02/26 02:59:36;;;;;;;1.67;0.98;;;;;;;-145.06;0.00;60892.56;4798870;28;20137;-90
2022/02/26 03:02:15;;;;;;;1.05;0.80;;;;;;;-145.06;0.00;60892.56;4791425;28;20035;-89
2022/02/26 03:04:54;;;;;;;2.05;1.00;;;;;;;-145.06;0.00;60892.56;4777073;29;20039;-89
2022/02/26 03:07:33;;;;;;;1.02;0.88;;;;;;;-145.06;0.00;60892.56;4777536;28;20043;-89
2022/02/26 03:10:13;;;;;;;1.98;1.00;;;;;;;-145.06;0.00;60892.56;4782353;28;20035;-90
2022/02/26 03:12:52;;;;;;;;;;;;;;;-145.06;0.00;60892.56;4772428;28;20039;-89
2022/02/26 03:15:32;;;;;;;2.03;1.00;;;;;;;-145.06;0.00;60892.56;4784924;28;20363;-89
2022/02/26 03:18:11;;;;;;;;;;;;;;;-145.06;0.00;60892.56;4767656;29;20043;-89
2022/02/26 03:20:51;;;;;;;1.03;0.73;;;;;;;-145.06;0.00;60892.56;4779237;28;20691;-90
2022/02/26 03:23:30;;;;;;;1.30;0.95;;;;;;;-145.06;0.00;60892.56;4784809;28;20270;-89
2022/02/26 03:26:08;;;;;;;1.63;0.90;;;;;;;-145.06;0.00;60892.56;4773850;28;20043;-89
2022/02/26 03:28:48;;;;;;;1.92;0.90;;;;;;;-145.06;0.00;60892.56;4789123;28;20035;-88
2022/02/26 03:31:27;;;;;;;2.10;0.98;;;;;;;-145.06;0.00;60892.56;4770702;28;20031;-91
2022/02/26 03:34:06;;;;;;;2.58;1.38;;;;;;;-145.06;0.00;60892.56;4773573;29;20031;-91
2022/02/26 03:36:47;;;;;;;1.55;0.93;;;;;;;-145.06;0.00;60892.56;4769728;29;20027;-89
2022/02/26 03:39:33;;;;;;;2.10;0.93;;;;;;;-145.06;0.00;60892.56;4767785;29;20031;-91
2022/02/26 03:42:12;;;;;;;1.60;0.80;;;;;;;-145.06;0.00;60892.56;4770611;28;20473;-90
2022/02/26 03:44:51;;;;;;;1.90;1.00;;;;;;;-145.06;0.00;60892.56;4770460;29;20035;-89
2022/02/26 03:47:30;;;;;;;1.87;1.13;;;;;;;-145.06;0.00;60892.56;4784298;28;20794;-90
2022/02/26 03:50:10;;;;;;;2.37;1.10;;;;;;;-145.06;0.00;60892.56;4760965;29;20315;-89
2022/02/26 03:52:50;;;;;;;1.70;1.00;;;;;;;-145.06;0.00;60892.56;4764085;29;20027;-91
2022/02/26 03:55:29;;;;;;;4.10;1.30;;;;;;;2.80;0.00;60892.56;4772723;28;20043;-90
2022/02/26 03:58:08;;;;;;;2.83;1.30;;;;;;;187.52;0.00;60892.56;4777504;28;20035;-90
2022/02/26 04:00:47;;;;;;;1.25;0.80;;;;;;;2.72;0.00;60892.56;4764436;29;20028;-88
2022/02/26 04:03:26;;;;;;;2.63;1.10;;;;;;;-145.06;0.00;60892.56;4787929;28;20125;-90
2022/02/26 04:06:04;;;;;;;2.10;1.00;;;;;;;-145.06;0.00;60892.56;4768487;28;20492;-89
2022/02/26 04:08:44;;;;;;;2.70;0.93;;;;;;;-145.06;0.00;60892.56;4769554;29;20047;-90
2022/02/26 04:11:23;;;;;;;1.90;1.10;;;;;;;-145.06;0.00;60892.56;4770149;28;20266;-92
2022/02/26 04:14:02;;;;;;;1.73;1.10;;;;;;;-145.06;0.00;60892.56;4771246;29;20043;-90
2022/02/26 04:16:42;;;;;;;1.67;1.23;;;;;;;-145.06;0.00;60892.56;4780295;28;20315;-91
2022/02/26 04:19:20;;;;;;;1.42;1.10;;;;;;;-145.06;0.00;60892.56;4775245;29;20043;-90
2022/02/26 04:22:00;;;;;;;1.67;0.97;;;;;;;-145.06;0.00;60892.56;4771206;28;20031;-90
2022/02/26 04:24:39;;;;;;;;;;;;;;;-145.06;0.00;60892.56;4785792;28;20063;-90
2022/02/26 04:27:18;;;;;;;1.58;1.13;;;;;;;-145.06;0.00;60892.56;4768351;29;19915;-89
2022/02/26 04:29:57;;;;;;;1.42;0.93;;;;;;;-145.06;0.00;60892.56;4772108;28;20058;-90
2022/02/26 04:32:38;;;;;;;1.00;0.80;;;;;;;-145.06;0.00;60892.56;4770965;29;20039;-89
2022/02/26 04:35:17;;;;;;;1.42;1.00;;;;;;;-145.06;0.00;60892.56;4780853;29;20040;-90
2022/02/26 04:37:55;;;;;;;2.22;1.08;;;;;;;-145.06;0.00;60892.56;4783764;29;20041;-89
2022/02/26 04:40:34;;;;;;;1.53;1.17;;;;;;;-145.06;0.00;60892.56;4762920;29;20347;-90
2022/02/26 04:43:13;;;;;;;2.85;1.02;;;;;;;-145.06;0.00;60892.56;4781717;28;20027;-91
2022/02/26 04:45:52;;;;;;;1.73;1.10;;;;;;;-145.06;0.00;60892.56;4789765;28;20122;-90
2022/02/26 04:48:33;;;;;;;2.47;1.10;;;;;;;-145.06;0.00;60892.56;4774998;28;20062;-91
2022/02/26 04:51:11;;;;;;;1.23;1.00;;;;;;;-145.06;0.00;60892.56;4776624;29;20286;-90
2022/02/26 04:53:50;;;;;;;1.20;0.87;;;;;;;-145.06;0.00;60892.56;4770229;28;20031;-90
2022/02/26 04:56:30;;;;;;;2.33;1.30;;;;;;;-145.06;0.00;60892.56;4788946;28;20031;-90
2022/02/26 04:59:08;;;;;;;1.63;0.90;;;;;;;-145.06;0.00;60892.56;4776811;28;20306;-90
2022/02/26 05:01:48;;;;;;;1.15;0.95;;;;;;;-145.06;0.00;60892.56;4782001;28;20109;-90
2022/02/26 05:04:27;;;;;;;3.60;1.35;;;;;;;-145.06;0.00;60892.56;4777908;29;20039;-90
2022/02/26 05:07:06;;;;;;;2.70;1.57;;;;;;;-145.06;0.00;60892.56;4777864;28;20035;-89
2022/02/26 05:09:45;;;;;;;3.42;1.77;;;;;;;-145.06;0.00;60892.56;4781204;29;20306;-91
2022/02/26 05:12:24;;;;;;;3.75;2.00;;;;;;;-145.06;0.00;60892.56;4783184;29;20035;-90
2022/02/26 05:15:04;;;;;;;4.10;2.00;;;;;;;-145.06;0.00;60892.56;4814931;28;20035;-90
2022/02/26 05:17:43;;;;;;;;;;;;;;;-145.06;0.00;60892.56;4770308;29;20035;-89
2022/02/26 05:20:22;;;;;;;3.60;1.90;;;;;;;-145.06;0.00;60892.56;4774540;28;19914;-88
2022/02/26 05:23:01;;;;;;;2.45;1.50;;;;;;;-145.06;0.00;60892.56;4775770;28;20075;-90
2022/02/26 05:25:40;;;;;;;2.78;1.52;;;;;;;-145.06;0.00;60892.56;4769206;29;20035;-90
2022/02/26 05:28:19;;;;;;;2.20;1.40;;;;;;;-145.06;0.00;60892.56;4776289;28;20047;-90
2022/02/26 05:30:58;;;;;;;3.33;1.35;;;;;;;-145.06;0.00;60892.56;4776007;28;20610;-88
2022/02/26 05:33:37;;;;;;;2.10;1.42;;;;;;;-145.06;0.00;60892.56;4785930;28;20039;-89
2022/02/26 05:36:15;;;;;;;3.05;1.23;;;;;;;-145.06;0.00;60892.56;4783236;28;20611;-89
2022/02/26 05:38:54;;;;;;;2.13;1.10;;;;;;;-145.06;0.00;60892.56;4782072;28;20110;-90
2022/02/26 05:41:33;;;;;;;2.10;1.50;;;;;;;-145.06;0.00;60892.56;4778595;28;20031;-88
2022/02/26 05:44:12;;;;;;;1.27;0.95;;;;;;;-145.06;0.00;60892.56;4764453;29;20263;-89
2022/02/26 05:46:52;;;;;;;3.63;1.52;;;;;;;-145.06;0.00;60892.56;4777507;28;20035;-89
2022/02/26 05:49:31;;;;;;;2.08;1.10;;;;;;;-145.06;0.00;60892.56;4761749;28;20043;-90
2022/02/26 05:52:09;;;;;;;2.15;1.20;;;;;;;-145.06;0.00;60892.56;4769249;28;20448;-89
2022/02/26 05:54:48;;;;;;;2.28;1.23;;;;;;;-145.06;0.00;60892.56;4796567;28;20102;-90
2022/02/26 05:57:27;;;;;;;2.85;1.30;;;;;;;-145.06;0.00;60892.56;4755079;28;20643;-90
2022/02/26 06:00:07;;;;;;;3.90;1.05;;;;;;;-145.06;0.00;60892.56;4773569;28;20032;-89
2022/02/26 06:02:46;;;;;;;2.67;1.33;;;;;;;-145.06;0.00;60892.56;4786961;28;20043;-90
2022/02/26 06:05:25;;;;;;;2.93;1.37;;;;;;;-145.06;0.00;60892.56;4777767;28;20377;-90
2022/02/26 06:08:04;;;;;;;2.20;1.13;;;;;;;10.68;0.00;60892.56;4777144;29;20027;-89
2022/02/26 06:10:43;;;;;;;2.55;1.40;;;;;;;-145.06;0.00;60892.56;4769471;29;20031;-89
2022/02/26 06:13:22;;;;;;;2.38;1.33;;;;;;;-145.06;0.00;60892.56;4793037;28;20035;-89
2022/02/26 06:16:02;;;;;;;3.10;1.42;;;;;;;-145.06;0.00;60892.56;4792598;28;20019;-89
2022/02/26 06:18:41;;;;;;;1.40;1.20;;;;;;;-145.06;0.00;60892.56;4781543;28;20039;-89
2022/02/26 06:21:20;;;;;;;2.30;1.48;;;;;;;-145.06;0.00;60892.56;4776377;28;20035;-89
2022/02/26 06:23:58;;;;;;;2.83;1.40;;;;;;;-145.06;0.00;60892.56;4779114;29;20035;-88
2022/02/26 06:26:37;;;;;;;2.40;1.57;;;;;;;-145.06;0.00;60892.56;4777015;28;20111;-90
2022/02/26 06:29:16;;;;;;;2.45;1.42;;;;;;;-145.06;0.00;60892.56;4772365;28;20278;-88
2022/02/26 06:31:55;;;;;;;2.33;1.23;;;;;;;-145.06;0.00;60892.56;4788072;28;20656;-89
2022/02/26 06:34:34;;;;;;;2.65;1.38;;;;;;;-145.06;0.00;60892.56;4790249;28;20474;-89
2022/02/26 06:37:13;;;;;;;2.95;1.20;;;;;;;-145.06;0.00;60892.56;4781077;28;20050;-90
2022/02/26 06:39:52;;;;;;;1.77;1.50;;;;;;;-145.06;0.00;60892.56;4769194;28;20490;-88
2022/02/26 06:42:31;;;;;;;2.80;1.10;;;;;;;-145.06;0.00;60892.56;4776556;28;20606;-89
2022/02/26 06:45:10;;;;;;;1.50;1.20;;;;;;;1.59;0.00;60892.56;4783664;28;20039;-89
2022/02/26 06:47:49;;;;;;;2.28;1.17;;;;;;;-145.06;0.00;60892.56;4776414;28;20287;-90
2022/02/26 06:50:28;;;;;;;3.03;1.30;;;;;;;-145.06;0.00;60892.56;4773039;28;20390;-89
2022/02/26 06:53:06;;;;;;;2.23;1.33;;;;;;;-145.06;0.00;60892.56;4780435;29;20039;-89
2022/02/26 06:55:45;;;;;;;1.98;1.48;;;;;;;-145.06;0.00;60892.56;4767968;29;20421;-89
2022/02/26 06:58:24;;;;;;;2.78;1.27;;;;;;;-145.06;0.00;60892.56;4781994;28;20489;-88
2022/02/26 07:01:04;;;;;;;3.60;1.43;;;;;;;-145.06;0.00;60892.56;4774284;29;20023;-89
2022/02/26 07:03:42;;;;;;;2.45;1.38;;;;;;;-145.06;0.00;60892.56;4794819;28;20034;-89
2022/02/26 07:06:21;;;;;;;1.63;1.20;;;;;;;-145.06;0.00;60892.56;4778330;28;20039;-89
2022/02/26 07:09:00;;;;;;;1.83;1.42;;;;;;;-145.06;0.00;60892.56;4781941;29;20319;-88
2022/02/26 07:11:41;;;;;;;4.30;1.50;;;;;;;-145.06;0.00;60892.56;4777408;28;20034;-88
2022/02/26 07:14:20;;;;;;;1.88;1.33;;;;;;;-145.06;0.00;60892.56;4772546;29;20540;-90
2022/02/26 07:16:59;;;;;;;3.72;1.42;;;;;;;-145.06;0.00;60892.56;4788289;28;20039;-89
2022/02/26 07:19:38;;;;;;;2.27;1.33;;;;;;;-145.06;0.00;60892.56;4782433;28;20039;-88
2022/02/26 07:22:17;;;;;;;2.28;1.30;;;;;;;-145.06;0.00;60892.56;4779365;28;20557;-89
2022/02/26 07:24:55;;;;;;;3.13;1.60;;;;;;;-145.06;0.00;60892.56;4792515;28;20622;-89
2022/02/26 07:27:34;;;;;;;2.00;1.37;;;;;;;-145.06;0.00;60892.56;4783658;28;20473;-88
2022/02/26 07:30:13;;;;;;;2.42;1.63;;;;;;;-145.06;0.00;60892.56;4782348;28;20043;-89
2022/02/26 07:32:52;;;;;;;1.45;1.30;;;;;;;-145.06;0.00;60892.56;4777621;28;20142;-88
2022/02/26 07:35:31;;;;;;;1.80;1.10;;;;;;;-145.06;0.00;60892.56;4786863;28;20038;-89
2022/02/26 07:38:10;;;;;;;2.17;1.47;;;;;;;-145.06;0.00;60892.56;4779771;28;20046;-90
2022/02/26 07:40:49;;;;;;;3.30;1.53;;;;;;;-145.06;0.00;60892.56;4780490;28;20271;-90
2022/02/26 07:43:29;;;;;;;1.70;1.45;;;;;;;-145.06;0.00;60892.56;4766467;29;20311;-90
2022/02/26 07:46:08;;;;;;;3.95;1.50;;;;;;;-145.06;0.00;60892.56;4785176;28;20046;-89
2022/02/26 07:48:47;;;;;;;2.73;1.67;;;;;;;-145.06;0.00;60892.56;4779029;28;20378;-90
2022/02/26 07:51:26;;;;;;;4.38;2.20;;;;;;;-145.06;0.00;60892.56;4775033;29;20035;-89
2022/02/26 07:54:05;;;;;;;2.95;1.90;;;;;;;-145.06;0.00;60892.56;4763468;29;20707;-89
2022/02/26 07:56:44;;;;;;;1.83;1.50;;;;;;;-145.06;0.00;60892.56;4777108;29;20114;-88
2022/02/26 07:59:23;;;;;;;4.82;2.60;;;;;;;-145.06;0.00;60892.56;4765072;29;20267;-88
2022/02/26 08:02:02;;;;;;;5.40;2.33;;;;;;;-145.06;0.00;60892.56;4782544;28;20389;-86
2022/02/26 08:04:41;;;;;;;5.97;2.47;;;;;;;-145.06;0.00;60892.56;4785449;28;20039;-87
2022/02/26 08:07:20;;;;;;;4.07;2.70;;;;;;;-145.06;0.00;60892.56;4768881;29;20437;-88
2022/02/26 08:09:59;;;;;;;2.73;1.73;;;;;;;-145.06;0.00;60892.56;4767369;28;20036;-87
2022/02/26 08:12:40;;;;;;;3.93;2.13;;;;;;;-145.06;0.00;60892.56;4769522;29;20279;-87
2022/02/26 08:15:20;;;;;;;2.85;1.80;;;;;;;187.52;0.00;60892.56;4765725;29;20499;-89
2022/02/26 08:17:59;;;;;;;3.85;2.13;;;;;;;-145.06;0.00;60892.56;4763968;29;20039;-88
2022/02/26 08:20:38;;;;;;;3.47;2.22;;;;;;;-145.06;0.00;60892.56;4779391;28;20063;-87
2022/02/26 08:23:17;;;;;;;3.05;1.95;;;;;;;-145.06;0.00;60892.56;4789511;28;20070;-88
2022/02/26 08:25:56;;;;;;;3.20;2.17;;;;;;;-145.06;0.00;60892.56;4777819;28;20047;-87
2022/02/26 08:28:35;;;;;;;3.87;2.17;;;;;;;-145.06;0.00;60892.56;4771431;28;20039;-88
2022/02/26 08:31:14;;;;;;;2.85;1.60;;;;;;;-145.06;0.00;60892.56;4765822;28;20282;-88
2022/02/26 08:33:53;;;;;;;3.10;1.77;;;;;;;-145.06;0.00;60892.56;4765177;29;20375;-87
2022/02/26 08:36:32;;;;;;;3.92;1.83;;;;;;;-145.06;0.00;60892.56;4769355;28;20043;-88
2022/02/26 08:39:11;;;;;;;3.40;2.00;;;;;;;-145.06;0.00;60892.56;4777369;28;20378;-86
2022/02/26 08:41:52;;;;;;;5.03;2.40;;;;;;;-145.06;0.00;60892.56;4778645;28;20778;-89
2022/02/26 08:44:31;;;;;;;3.83;2.10;;;;;;;-145.06;0.00;60892.56;4776834;28;20031;-89
2022/02/26 08:47:10;;;;;;;3.85;2.33;;;;;;;-145.06;0.00;60892.56;4779159;28;20035;-89
2022/02/26 08:49:49;;;;;;;2.75;1.65;;;;;;;-145.06;0.00;60892.56;4780926;28;20035;-89
2022/02/26 08:52:28;;;;;;;2.73;1.90;;;;;;;-145.06;0.00;60892.56;4778865;29;20031;-88
2022/02/26 08:55:08;;;;;;;5.17;2.00;;;;;;;21.08;0.00;60892.56;4780643;28;20275;-88
2022/02/26 08:57:47;;;;;;;;;;;;;;;187.52;0.00;60892.56;4780556;29;20035;-90
2022/02/26 09:00:26;;;;;;;3.75;1.70;;;;;;;-145.06;0.00;60892.56;4782977;28;19914;-88
2022/02/26 09:03:05;;;;;;;2.83;1.47;;;;;;;-145.06;0.00;60892.56;4778337;28;20375;-88
2022/02/26 09:05:45;;;;;;;2.92;1.58;;;;;;;-145.06;0.00;60892.56;4764844;29;20374;-89
2022/02/26 09:08:23;;;;;;;2.53;1.40;;;;;;;-145.06;0.00;60892.56;4780098;28;20039;-91
2022/02/26 09:11:02;;;;;;;4.83;1.90;;;;;;;-145.06;0.00;60892.56;4770287;28;20043;-89
2022/02/26 09:13:42;;;;;;;4.50;1.90;;;;;;;-145.06;0.00;60892.56;4778656;28;20039;-89
2022/02/26 09:16:22;;;;;;;3.28;1.60;;;;;;;-145.06;0.00;60892.56;4778460;28;20035;-89
2022/02/26 09:19:02;;;;;;;4.43;2.05;;;;;;;-145.06;0.00;60892.56;4780429;28;20378;-89
2022/02/26 09:21:41;;;;;;;;;;;;;;;-145.06;0.00;60892.56;4773422;28;20039;-90
2022/02/26 09:24:20;;;;;;;3.70;1.60;;;;;;;10.68;0.00;60892.56;4767445;28;19922;-90
2022/02/26 09:26:59;;;;;;;2.67;1.90;;;;;;;-145.06;0.00;60892.56;4771889;28;20035;-91
2022/02/26 09:29:38;;;;;;;4.88;2.00;;;;;;;5.17;0.00;60892.56;4772240;29;20492;-91
2022/02/26 09:32:18;;;;;;;6.17;2.10;;;;;;;-145.06;0.00;60892.56;4774443;28;20047;-90
2022/02/26 09:34:58;;;;;;;4.00;2.22;;;;;;;-145.06;0.00;60892.56;4791573;28;20027;-88
2022/02/26 09:37:38;;;;;;;6.50;2.20;;;;;;;-145.06;0.00;60892.56;4786648;29;20071;-90
2022/02/26 09:40:18;;;;;;;;;;;;;;;-145.06;0.00;60892.56;4774036;28;20058;-90
2022/02/26 09:42:58;;;;;;;2.50;1.50;;;;;;;-145.06;0.00;60892.56;4789731;28;19922;-89
2022/02/26 09:45:37;;;;;;;2.97;2.08;;;;;;;-145.06;0.00;60892.56;4782326;28;20381;-91
2022/02/26 09:48:16;;;;;;;4.00;1.73;;;;;;;-145.06;0.00;60892.56;4767956;29;20047;-90
2022/02/26 09:50:55;;;;;;;4.47;1.90;;;;;;;-145.06;0.00;60892.56;4764202;29;20391;-90
2022/02/26 09:53:34;;;;;;;5.43;1.92;;;;;;;-145.06;0.00;60892.56;4767751;29;20038;-90
2022/02/26 09:56:13;;;;;;;4.05;1.83;;;;;;;-145.06;0.00;60892.56;4767748;29;20043;-90
2022/02/26 09:58:53;;;;;;;3.88;2.20;;;;;;;-145.06;0.00;60892.56;4775840;28;20043;-90
2022/02/26 10:01:32;;;;;;;2.97;1.63;;;;;;;-145.06;0.00;60892.56;4779161;28;20039;-90
2022/02/26 10:04:11;;;;;;;2.57;1.50;;;;;;;-145.06;0.00;60892.56;4766270;28;20047;-89
2022/02/26 10:06:50;;;;;;;;;;;;;;;-145.06;0.00;60892.56;4770381;28;20110;-92
2022/02/26 10:09:30;;;;;;;3.08;1.58;;;;;;;-145.06;0.00;60892.56;4777681;28;20005;-90
2022/02/26 10:12:24;;;;;;;2.17;1.67;;;;;;;-145.06;0.00;60892.56;4768135;28;20046;-90
2022/02/26 10:15:07;;;;;;;3.67;1.83;;;;;;;-145.06;0.00;60892.56;4766888;28;20634;-90
2022/02/26 10:17:46;;;;;;;4.75;1.65;;;;;;;-145.06;0.00;60892.56;4758374;29;20031;-90
2022/02/26 10:20:25;;;;;;;3.33;2.00;;;;;;;-145.06;0.00;60892.56;4781168;28;20119;-89
2022/02/26 10:23:04;;;;;;;2.55;1.42;;;;;;;-145.06;0.00;60892.56;4767155;29;20449;-91
2022/02/26 10:25:43;;;;;;;2.33;1.57;;;;;;;-145.06;0.00;60892.56;4776806;28;20047;-89
2022/02/26 10:28:22;;;;;;;3.25;1.95;;;;;;;-145.06;0.00;60892.56;4765389;29;20031;-91
2022/02/26 10:31:06;;;;;;;4.60;1.70;;;;;;;-145.06;0.00;60892.56;4787559;28;20031;-91
2022/02/26 10:33:44;;;;;;;4.28;1.52;;;;;;;-145.06;0.00;60892.56;4778435;29;20117;-90
2022/02/26 10:36:23;;;;;;;2.97;1.87;;;;;;;-145.06;0.00;60892.56;4766077;29;20679;-90
2022/02/26 10:39:03;;;;;;;3.80;2.33;;;;;;;-145.06;0.00;60892.56;4780640;29;20752;-90
2022/02/26 10:41:46;;;;;;;5.85;2.38;;;;;;;-145.06;0.00;60892.56;4766773;29;20027;-90
2022/02/26 10:44:25;;;;;;;7.13;2.33;;;;;;;-145.06;0.00;60892.56;4766707;29;20039;-91
2022/02/26 10:47:11;;;;;;;4.30;2.10;;;;;;;-145.06;0.00;60892.56;4780997;29;20032;-91
2022/02/26 10:49:50;;;;;;;4.32;1.90;;;;;;;10.68;0.00;60892.56;4782304;29;20823;-90
2022/02/26 10:52:31;;;;;;;3.58;1.88;;;;;;;6.57;0.00;60892.56;4781924;29;20211;-92
2022/02/26 10:55:10;;;;;;;5.63;1.80;;;;;;;10.68;0.00;60892.56;4768374;29;20114;-89
2022/02/26 10:57:56;;;;;;;5.65;1.67;;;;;;;-145.06;0.00;60892.56;4782754;29;20039;-91
2022/02/26 11:00:40;;;;;;;2.50;1.65;;;;;;;6.79;0.00;60892.56;4779761;29;20027;-90
2022/02/26 11:03:21;;;;;;;3.65;1.80;;;;;;;-145.06;0.00;60892.56;4768541;29;20039;-90
2022/02/26 11:06:02;;;;;;;3.55;1.80;;;;;;;-145.06;0.00;60892.56;4780461;29;20042;-89
2022/02/26 11:08:43;;;;;;;4.53;1.88;;;;;;;-145.06;0.00;60892.56;4777304;29;20043;-91
2022/02/26 11:11:23;;;;;;;2.78;1.60;;;;;;;-145.06;0.00;60892.56;4768487;29;20059;-90
2022/02/26 11:14:02;;;;;;;;;;;;;;;-145.06;0.00;60892.56;4780970;29;20027;-90
2022/02/26 11:16:41;;;;;;;3.35;1.67;;;;;;;-145.06;0.00;60892.56;4777959;29;20001;-90
2022/02/26 11:19:23;;;;;;;3.00;1.42;;;;;;;-145.06;0.00;60892.56;4767847;29;20362;-89
2022/02/26 11:22:03;;;;;;;3.88;1.80;;;;;;;-145.06;0.00;60892.56;4773727;29;20035;-90
2022/02/26 11:24:43;;;;;;;5.22;1.70;;;;;;;8.08;0.00;60892.56;4771609;29;20027;-90
2022/02/26 11:27:26;;;;;;;3.97;1.50;;;;;;;-145.06;0.00;60892.56;4780693;28;20067;-91
2022/02/26 11:30:06;;;;;;;4.15;1.85;;;;;;;-145.06;0.00;60892.56;4768185;29;20063;-91
2022/02/26 11:32:47;;;;;;;2.72;1.60;;;;;;;-145.06;0.00;60892.56;4776489;28;20047;-91
2022/02/26 11:35:26;;;;;;;3.08;1.63;;;;;;;-145.06;0.00;60892.56;4756136;29;20031;-89
2022/02/26 11:38:07;;;;;;;2.78;1.70;;;;;;;-145.06;0.00;60892.56;4765142;29;20035;-89
2022/02/26 11:40:50;;;;;;;3.50;1.88;;;;;;;-145.06;0.00;60892.56;4776403;28;20485;-91
2022/02/26 11:43:37;;;;;;;3.90;1.90;;;;;;;-145.06;0.00;60892.56;4774870;29;20035;-91
2022/02/26 11:46:24;;;;;;;4.50;1.88;;;;;;;7.68;0.00;60892.56;4767359;28;20031;-91
2022/02/26 11:49:17;;;;;;;5.88;2.85;;;;;;;-145.06;0.00;60892.56;4787517;28;20059;-91
2022/02/26 11:51:56;;;;;;;6.10;3.00;;;;;;;-145.06;0.00;60892.56;4779965;29;20110;-91
2022/02/26 11:54:41;;;;;;;6.88;3.22;;;;;;;8.08;0.00;60892.56;4781448;29;20378;-89
2022/02/26 11:57:20;;;;;;;7.03;2.63;;;;;;;-145.06;0.00;60892.56;4782008;28;20496;-88
2022/02/26 12:00:10;;;;;;;5.37;3.00;;;;;;;-145.06;0.00;60892.56;4780548;28;20058;-88
2022/02/26 12:03:14;;;;;;;10.13;5.60;;;;;;;-145.06;0.00;60892.56;4773835;28;20047;-88
2022/02/26 12:06:13;;;;;;;14.57;8.50;;;;;;;-145.06;0.00;60892.56;4777760;28;20023;-89
2022/02/26 12:08:52;;;;;;;11.55;5.57;;;;;;;-145.06;0.00;60892.56;4778756;29;20034;-89
2022/02/26 12:11:33;;;;;;;10.07;5.65;;;;;;;-145.06;0.00;60892.56;4770129;28;20121;-89
2022/02/26 12:14:25;;;;;;;6.97;3.90;;;;;;;-145.06;0.00;60892.56;4766556;29;20043;-89
2022/02/26 12:17:08;;;;;;;5.43;2.67;;;;;;;-145.06;0.00;60892.56;4798542;28;20122;-90
2022/02/26 12:19:50;;;;;;;6.45;3.13;;;;;;;-145.06;0.00;60892.56;4751063;28;20106;-88
2022/02/26 12:22:43;;;;;;;4.10;2.58;;;;;;;-145.06;0.00;60892.56;4788263;28;20085;-89
2022/02/26 12:25:24;;;;;;;4.72;2.20;;;;;;;-145.06;0.00;60892.56;4764383;28;20047;-90
2022/02/26 12:28:08;;;;;;;4.97;1.83;;;;;;;-145.06;0.00;60892.56;4780576;28;20469;-90
2022/02/26 12:30:51;;;;;;;2.85;1.60;;;;;;;-145.06;0.00;60892.56;4780819;28;20039;-91